Time;durP1;ratioP1;P1;durP2;ratioP2;P2;SDS_P1;SDS_P2;PMS_P1;PMS_P2;Temp;Humidity;BMP_temperature;BMP_pressure;BME280_temperature;BME280_humidity;BME280_pressure;Samples;Min_cycle;Max_cycle;Signal;HPM_P1;HPM_P2
2022/12/11 00:02:12;;;;;;;59.97;20.77;;;-1.50;99.90;;;;;;5032353;28;20480;-59
2022/12/11 00:04:39;;;;;;;50.73;18.63;;;-1.40;99.90;;;;;;5030582;28;21068;-59
2022/12/11 00:07:06;;;;;;;52.87;20.43;;;;;;;;;;5025320;28;20535;-60
2022/12/11 00:09:32;;;;;;;64.70;23.43;;;-1.20;99.90;;;;;;5024242;28;20493;-59
2022/12/11 00:12:01;;;;;;;81.20;28.00;;;-1.20;99.90;;;;;;5031076;28;20480;-60
2022/12/11 00:14:28;;;;;;;74.37;24.70;;;;;;;;;;5025726;28;20944;-60
2022/12/11 00:16:55;;;;;;;61.53;22.53;;;-1.00;99.90;;;;;;5029418;28;20860;-60
2022/12/11 00:19:22;;;;;;;43.33;13.80;;;-1.10;99.90;;;;;;5018989;28;20492;-59
2022/12/11 00:21:49;;;;;;;55.23;18.40;;;;;;;;;;5017783;28;20488;-60
2022/12/11 00:24:16;;;;;;;61.83;22.60;;;-1.00;99.90;;;;;;5009355;28;20473;-59
2022/12/11 00:26:42;;;;;;;62.90;21.73;;;-0.90;99.90;;;;;;5004906;28;20504;-60
2022/12/11 00:29:13;;;;;;;53.17;20.67;;;;;;;;;;5007654;28;20500;-60
2022/12/11 00:31:40;;;;;;;56.77;19.70;;;-0.90;99.90;;;;;;5008650;28;20477;-60
2022/12/11 00:34:07;;;;;;;66.00;20.80;;;-0.80;99.90;;;;;;5014378;28;20864;-60
2022/12/11 00:36:34;;;;;;;68.07;20.13;;;-0.80;99.90;;;;;;5011177;28;20484;-60
2022/12/11 00:39:02;;;;;;;51.40;18.60;;;-0.80;99.90;;;;;;5001661;28;20500;-60
2022/12/11 00:41:29;;;;;;;44.33;18.13;;;-0.80;99.90;;;;;;5032970;28;20490;-59
2022/12/11 00:43:55;;;;;;;66.53;25.30;;;-1.00;99.90;;;;;;5028543;28;21088;-59
2022/12/11 00:46:24;;;;;;;70.87;22.53;;;-0.90;99.90;;;;;;5016254;28;20485;-60
2022/12/11 00:48:50;;;;;;;54.50;16.30;;;-0.90;99.90;;;;;;5014635;28;20484;-60
2022/12/11 00:51:17;;;;;;;60.60;20.13;;;-0.90;99.90;;;;;;5018831;28;20820;-58
2022/12/11 00:53:45;;;;;;;67.63;19.53;;;;;;;;;;5035445;28;20476;-60
2022/12/11 00:56:14;;;;;;;68.60;19.93;;;-0.90;99.90;;;;;;5025879;28;20542;-59
2022/12/11 00:58:40;;;;;;;42.23;17.50;;;-0.90;99.90;;;;;;5026112;28;20485;-59
2022/12/11 01:01:08;;;;;;;46.87;15.40;;;-0.90;99.90;;;;;;5020460;28;20484;-60
2022/12/11 01:03:36;;;;;;;45.23;13.67;;;-1.00;99.90;;;;;;5017653;28;20489;-59
2022/12/11 01:06:04;;;;;;;64.10;16.57;;;-1.00;99.90;;;;;;5012375;28;20999;-59
2022/12/11 01:08:32;;;;;;;51.47;14.03;;;;;;;;;;5013841;28;20481;-60
2022/12/11 01:11:03;;;;;;;54.93;19.07;;;-1.10;99.90;;;;;;5018674;28;21130;-59
2022/12/11 01:13:30;;;;;;;78.10;21.90;;;-1.10;99.90;;;;;;5034314;28;21156;-59
2022/12/11 01:15:57;;;;;;;79.03;26.10;;;-1.20;99.90;;;;;;5028107;28;20501;-59
2022/12/11 01:18:26;;;;;;;65.90;22.10;;;-1.20;99.90;;;;;;5037521;28;20473;-59
2022/12/11 01:20:54;;;;;;;45.53;15.73;;;-1.10;99.90;;;;;;5020342;28;20997;-59
2022/12/11 01:23:21;;;;;;;96.53;30.77;;;;;;;;;;5025456;28;21060;-59
2022/12/11 01:25:48;;;;;;;33.60;13.63;;;-1.20;99.90;;;;;;5020376;28;21112;-59
2022/12/11 01:28:15;;;;;;;69.97;21.17;;;-1.10;99.90;;;;;;5018256;28;20492;-59
2022/12/11 01:30:42;;;;;;;63.33;16.93;;;-1.00;99.90;;;;;;5015738;28;20489;-59
2022/12/11 01:33:10;;;;;;;63.87;22.37;;;-1.00;99.90;;;;;;5026737;28;20795;-59
2022/12/11 01:35:39;;;;;;;81.23;25.27;;;;;;;;;;5026083;28;20485;-59
2022/12/11 01:38:07;;;;;;;84.70;26.00;;;-1.10;99.90;;;;;;5014635;28;20564;-59
2022/12/11 01:40:33;;;;;;;105.93;31.17;;;-1.10;99.90;;;;;;5011722;28;21294;-59
2022/12/11 01:43:00;;;;;;;88.50;27.40;;;-1.10;99.90;;;;;;5025745;28;20473;-59
2022/12/11 01:45:35;;;;;;;106.87;33.70;;;-1.10;99.90;;;;;;5014550;28;21629;-59
2022/12/11 01:48:04;;;;;;;88.23;28.70;;;;;;;;;;5015759;28;20869;-59
2022/12/11 01:50:34;;;;;;;74.50;23.83;;;-1.10;99.90;;;;;;5013673;28;20484;-58
2022/12/11 01:53:02;;;;;;;90.07;23.57;;;;;;;;;;5027673;28;20480;-59
2022/12/11 01:55:30;;;;;;;58.17;19.43;;;-0.90;99.90;;;;;;5012637;28;20484;-58
2022/12/11 01:57:56;;;;;;;77.50;23.70;;;-0.90;99.90;;;;;;5019221;28;20483;-59
2022/12/11 02:00:23;;;;;;;78.13;26.07;;;-0.90;99.90;;;;;;5017643;28;20481;-59
2022/12/11 02:02:50;;;;;;;95.37;28.03;;;-0.90;99.90;;;;;;5019116;28;21015;-59
2022/12/11 02:05:17;;;;;;;61.93;21.30;;;-0.80;99.90;;;;;;5022490;28;20703;-59
2022/12/11 02:07:48;;;;;;;48.00;16.67;;;-0.70;99.90;;;;;;5012329;28;20487;-59
2022/12/11 02:10:15;;;;;;;74.13;19.33;;;-0.60;99.90;;;;;;5015728;28;20873;-60
2022/12/11 02:12:53;;;;;;;66.77;19.97;;;-0.50;99.90;;;;;;5016385;28;20758;-60
2022/12/11 02:15:31;;;;;;;54.30;19.50;;;-0.40;99.90;;;;;;5016700;28;20485;-59
2022/12/11 02:18:09;;;;;;;58.27;18.23;;;-0.30;99.90;;;;;;5020651;28;20907;-60
2022/12/11 02:20:40;;;;;;;77.00;22.57;;;-0.20;99.90;;;;;;5023129;28;20469;-59
2022/12/11 02:23:25;;;;;;;66.97;18.47;;;-0.10;99.90;;;;;;5008188;28;20496;-58
2022/12/11 02:26:03;;;;;;;49.53;15.83;;;0.00;99.90;;;;;;5014716;28;20489;-60
2022/12/11 02:28:34;;;;;;;66.60;20.70;;;-0.10;99.90;;;;;;5038621;28;20510;-59
2022/12/11 02:31:05;;;;;;;75.03;21.10;;;0.00;99.90;;;;;;5029249;28;20485;-58
2022/12/11 02:33:36;;;;;;;67.67;22.10;;;;;;;;;;5012537;28;20500;-59
2022/12/11 02:36:04;;;;;;;71.20;25.10;;;0.00;99.90;;;;;;5011072;28;20480;-59
2022/12/11 02:38:34;;;;;;;67.67;19.13;;;0.00;99.90;;;;;;5016414;28;20477;-59
2022/12/11 02:41:04;;;;;;;72.20;24.60;;;0.00;99.90;;;;;;5011858;28;20484;-59
2022/12/11 02:43:34;;;;;;;83.37;23.87;;;;;;;;;;5024965;28;20489;-60
2022/12/11 02:46:03;;;;;;;87.13;27.33;;;0.00;99.90;;;;;;5020760;28;20540;-60
2022/12/11 02:48:32;;;;;;;72.67;22.93;;;;;;;;;;5010473;28;20481;-59
2022/12/11 02:51:00;;;;;;;66.93;22.57;;;0.10;99.90;;;;;;5012586;28;20489;-60
2022/12/11 02:53:31;;;;;;;60.73;21.97;;;0.10;99.90;;;;;;5006298;28;20489;-59
2022/12/11 02:56:01;;;;;;;57.73;17.10;;;;;;;;;;5024220;28;20493;-59
2022/12/11 02:58:32;;;;;;;78.73;22.10;;;0.10;99.90;;;;;;5021000;28;20645;-60
2022/12/11 03:00:59;;;;;;;75.27;28.30;;;0.00;99.90;;;;;;5023137;28;20857;-60
2022/12/11 03:03:29;;;;;;;73.87;25.40;;;;;;;;;;5021680;28;20989;-60
2022/12/11 03:05:56;;;;;;;58.20;17.10;;;0.00;99.90;;;;;;5010888;28;21253;-60
2022/12/11 03:08:23;;;;;;;73.70;28.13;;;-0.10;99.90;;;;;;5010119;28;20485;-60
2022/12/11 03:10:50;;;;;;;43.37;15.17;;;0.00;99.90;;;;;;5010857;28;20481;-59
2022/12/11 03:13:18;;;;;;;43.33;15.27;;;;;;;;;;4999453;28;20633;-60
2022/12/11 03:15:58;;;;;;;47.77;15.40;;;0.10;99.90;;;;;;5015678;28;20502;-60
2022/12/11 03:18:33;;;;;;;80.43;23.93;;;0.10;99.90;;;;;;5011441;28;20477;-60
2022/12/11 03:21:04;;;;;;;36.60;13.40;;;0.10;99.90;;;;;;5005889;28;20496;-60
2022/12/11 03:23:36;;;;;;;67.53;22.93;;;0.10;99.90;;;;;;5011024;28;20703;-60
2022/12/11 03:26:08;;;;;;;69.50;23.10;;;0.00;99.90;;;;;;5017361;28;20568;-60
2022/12/11 03:28:40;;;;;;;71.37;20.63;;;0.00;99.90;;;;;;5010461;28;20485;-60
2022/12/11 03:31:12;;;;;;;51.53;16.73;;;;;;;;;;5015232;28;20503;-59
2022/12/11 03:33:41;;;;;;;36.27;14.60;;;0.10;99.90;;;;;;5007158;28;20504;-60
2022/12/11 03:36:12;;;;;;;68.03;20.93;;;0.20;99.90;;;;;;5036156;28;20476;-60
2022/12/11 03:38:42;;;;;;;66.13;19.90;;;;;;;;;;5019413;28;20488;-60
2022/12/11 03:41:10;;;;;;;65.40;21.77;;;0.00;99.90;;;;;;5011577;28;20797;-59
2022/12/11 03:43:38;;;;;;;41.00;13.40;;;0.10;99.90;;;;;;5013077;28;20481;-60
2022/12/11 03:46:07;;;;;;;66.40;20.33;;;0.20;99.90;;;;;;5011660;28;20860;-60
2022/12/11 03:48:38;;;;;;;44.57;15.80;;;0.20;99.90;;;;;;5018328;28;20824;-59
2022/12/11 03:51:06;;;;;;;45.47;15.93;;;0.20;99.90;;;;;;5016605;28;20488;-60
2022/12/11 03:53:34;;;;;;;50.63;17.07;;;0.30;99.90;;;;;;5017750;28;20499;-59
2022/12/11 03:56:01;;;;;;;67.23;18.03;;;0.30;99.90;;;;;;5025665;28;20489;-59
2022/12/11 03:58:28;;;;;;;66.80;19.03;;;;;;;;;;5027950;28;20519;-59
2022/12/11 04:00:55;;;;;;;47.93;12.97;;;0.40;99.90;;;;;;5032938;28;20490;-59
2022/12/11 04:03:22;;;;;;;58.63;19.17;;;0.50;99.90;;;;;;5029898;28;20491;-59
2022/12/11 04:05:51;;;;;;;47.90;17.30;;;;;;;;;;5018329;28;20516;-59
2022/12/11 04:08:20;;;;;;;74.53;22.60;;;0.40;99.90;;;;;;5014889;28;20496;-59
2022/12/11 04:10:47;;;;;;;43.33;14.93;;;0.50;99.90;;;;;;5013263;28;21080;-58
2022/12/11 04:13:14;;;;;;;40.00;13.77;;;;;;;;;;5011329;28;20895;-59
2022/12/11 04:15:40;;;;;;;52.17;19.50;;;;;;;;;;5056125;28;20492;-59
2022/12/11 04:26:24;;;;;;;55.37;19.13;;;0.60;99.90;;;;;;5016749;28;20572;-58
2022/12/11 04:28:50;;;;;;;56.03;15.10;;;0.60;99.90;;;;;;5017729;28;20477;-58
2022/12/11 04:31:19;;;;;;;48.17;16.80;;;;;;;;;;5034576;28;20482;-59
2022/12/11 04:33:46;;;;;;;34.93;11.77;;;0.60;99.90;;;;;;5017741;28;20485;-59
2022/12/11 04:36:15;;;;;;;41.27;16.37;;;;;;;;;;5034860;28;20568;-59
2022/12/11 04:38:42;;;;;;;35.23;12.53;;;0.70;99.90;;;;;;5016460;28;20483;-59
2022/12/11 04:41:10;;;;;;;46.80;18.13;;;0.60;99.90;;;;;;5011719;28;20489;-59
2022/12/11 04:43:37;;;;;;;50.33;17.57;;;0.60;99.90;;;;;;5019799;28;20489;-59
2022/12/11 04:46:05;;;;;;;52.87;15.03;;;;;;;;;;5028764;28;20492;-59
2022/12/11 04:48:32;;;;;;;53.93;14.77;;;0.70;99.90;;;;;;5016338;28;20488;-59
2022/12/11 04:50:59;;;;;;;50.03;17.43;;;3.20;99.90;;;;;;5018323;28;20488;-59
2022/12/11 04:53:27;;;;;;;56.63;17.50;;;1.10;99.90;;;;;;5021207;28;20492;-59
2022/12/11 04:55:55;;;;;;;41.37;12.70;;;0.60;99.90;;;;;;5020479;28;20564;-59
2022/12/11 04:58:22;;;;;;;68.00;20.97;;;;;;;;;;5011132;28;20500;-59
2022/12/11 05:00:49;;;;;;;41.03;14.40;;;;;;;;;;5023073;28;20480;-59
2022/12/11 05:03:16;;;;;;;49.30;14.00;;;0.40;99.90;;;;;;5021703;28;20485;-59
2022/12/11 05:05:48;;;;;;;48.20;15.03;;;0.50;99.90;;;;;;5024133;28;20476;-60
2022/12/11 05:08:14;;;;;;;47.57;15.90;;;0.50;99.90;;;;;;5049179;28;20852;-59
2022/12/11 05:10:42;;;;;;;64.60;17.20;;;0.40;99.90;;;;;;5037029;28;20856;-59
2022/12/11 05:13:09;;;;;;;36.10;11.17;;;0.50;99.90;;;;;;5037779;28;20480;-59
2022/12/11 05:15:38;;;;;;;51.37;18.70;;;0.50;99.90;;;;;;5034171;28;20827;-59
2022/12/11 05:18:05;;;;;;;72.37;21.37;;;0.40;99.90;;;;;;5033825;28;20803;-60
2022/12/11 05:20:32;;;;;;;74.33;24.03;;;0.40;99.90;;;;;;5036249;28;20477;-59
2022/12/11 05:22:59;;;;;;;47.47;18.27;;;0.90;99.90;;;;;;5034411;28;21190;-59
2022/12/11 05:25:26;;;;;;;48.10;14.57;;;0.40;99.90;;;;;;5033292;28;20473;-58
2022/12/11 05:27:54;;;;;;;39.67;15.20;;;0.40;99.90;;;;;;5034318;28;20472;-60
2022/12/11 05:30:20;;;;;;;54.17;14.30;;;0.40;99.90;;;;;;5032343;28;21208;-60
2022/12/11 05:32:47;;;;;;;34.30;10.37;;;0.50;99.90;;;;;;5036246;28;20487;-58
2022/12/11 05:35:14;;;;;;;49.90;14.53;;;;;;;;;;5019794;28;20494;-58
2022/12/11 05:37:41;;;;;;;52.23;17.00;;;0.60;99.90;;;;;;5028416;28;21010;-59
2022/12/11 05:40:11;;;;;;;59.30;14.73;;;0.70;99.90;;;;;;5033512;28;20484;-58
2022/12/11 05:42:38;;;;;;;44.90;13.30;;;0.70;99.90;;;;;;5034377;28;20492;-59
2022/12/11 05:45:07;;;;;;;44.17;15.20;;;0.80;99.90;;;;;;5029766;28;20489;-59
2022/12/11 05:47:34;;;;;;;54.73;16.13;;;0.80;99.90;;;;;;5011033;28;20564;-59
2022/12/11 05:50:00;;;;;;;43.57;15.67;;;0.80;99.90;;;;;;5015857;28;20588;-58
2022/12/11 05:52:27;;;;;;;56.03;19.77;;;0.80;99.90;;;;;;5017742;28;20483;-59
2022/12/11 05:54:54;;;;;;;49.00;15.77;;;;;;;;;;5011877;28;20531;-59
2022/12/11 05:57:21;;;;;;;64.23;19.90;;;0.80;99.90;;;;;;5039967;28;20488;-58
2022/12/11 05:59:47;;;;;;;46.23;13.00;;;0.90;99.90;;;;;;5029872;28;20476;-59
2022/12/11 06:02:16;;;;;;;37.00;12.17;;;2.60;99.90;;;;;;5027382;28;20488;-59
2022/12/11 06:04:42;;;;;;;48.87;16.30;;;0.80;99.90;;;;;;5021916;28;20485;-58
2022/12/11 06:07:09;;;;;;;58.13;15.90;;;0.80;99.90;;;;;;4982814;28;1261585;-58
2022/12/11 06:09:36;;;;;;;38.70;14.57;;;0.90;99.90;;;;;;5037479;28;20246;-59
2022/12/11 06:12:03;;;;;;;53.80;17.27;;;0.90;99.90;;;;;;5038240;28;20468;-59
2022/12/11 06:14:29;;;;;;;57.73;18.60;;;1.00;99.90;;;;;;5038727;28;20476;-59
2022/12/11 06:16:56;;;;;;;42.17;15.10;;;0.90;99.90;;;;;;5035556;28;20484;-58
2022/12/11 06:19:24;;;;;;;49.97;16.40;;;;;;;;;;5038366;28;20480;-58
2022/12/11 06:21:52;;;;;;;31.30;11.40;;;;;;;;;;5032726;28;20476;-59
2022/12/11 06:24:18;;;;;;;53.43;15.27;;;0.80;99.90;;;;;;5036634;28;20476;-59
2022/12/11 06:26:45;;;;;;;51.50;14.83;;;0.70;99.90;;;;;;5037408;28;20488;-59
2022/12/11 06:29:12;;;;;;;54.60;17.63;;;-1.70;99.90;;;;;;5037039;28;20476;-60
2022/12/11 06:31:39;;;;;;;64.87;18.53;;;0.60;99.90;;;;;;5038956;28;20488;-59
2022/12/11 06:34:06;;;;;;;43.37;15.37;;;0.60;99.90;;;;;;5039489;28;20484;-59
2022/12/11 06:36:34;;;;;;;55.50;18.03;;;0.50;99.90;;;;;;5031639;28;20892;-59
2022/12/11 06:39:01;;;;;;;49.70;14.50;;;0.50;99.90;;;;;;5035214;28;20832;-59
2022/12/11 06:41:27;;;;;;;60.47;20.03;;;0.60;99.90;;;;;;5035796;28;20476;-58
2022/12/11 06:43:54;;;;;;;45.57;13.10;;;;;;;;;;5035637;28;20484;-59
2022/12/11 06:46:21;;;;;;;95.70;27.67;;;;;;;;;;5036037;28;21004;-58
2022/12/11 06:48:49;;;;;;;45.77;16.73;;;0.60;99.90;;;;;;5035972;28;20477;-59
2022/12/11 06:51:18;;;;;;;66.10;18.17;;;1.80;99.90;;;;;;5036845;28;20477;-59
2022/12/11 06:53:51;;;;;;;50.53;14.77;;;0.80;99.90;;;;;;5037728;28;20481;-58
2022/12/11 06:56:18;;;;;;;91.27;28.07;;;;;;;;;;5030442;28;21065;-58
2022/12/11 06:58:45;;;;;;;48.80;16.00;;;0.50;99.90;;;;;;5035547;28;20503;-58
2022/12/11 07:01:17;;;;;;;39.23;12.27;;;2.50;99.90;;;;;;5036203;28;20488;-59
2022/12/11 07:03:44;;;;;;;45.63;16.43;;;0.60;99.90;;;;;;5036033;28;20485;-59
2022/12/11 07:06:10;;;;;;;51.17;17.50;;;0.70;99.90;;;;;;5031774;28;20495;-59
2022/12/11 07:08:37;;;;;;;51.07;16.47;;;0.70;99.90;;;;;;5036294;28;20488;-59
2022/12/11 07:11:07;;;;;;;42.63;15.43;;;0.70;99.90;;;;;;5036071;28;20702;-59
2022/12/11 07:13:34;;;;;;;54.17;12.23;;;0.70;99.90;;;;;;5034816;28;20758;-59
2022/12/11 07:16:03;;;;;;;44.57;15.23;;;0.70;99.90;;;;;;5033355;28;20481;-59
2022/12/11 07:18:30;;;;;;;62.27;18.90;;;0.70;99.90;;;;;;5036135;28;20492;-59
2022/12/11 07:20:58;;;;;;;30.83;11.07;;;0.70;99.90;;;;;;5027713;28;20478;-59
2022/12/11 07:23:25;;;;;;;64.37;17.60;;;0.70;99.90;;;;;;5025731;28;20600;-59
2022/12/11 07:25:52;;;;;;;47.03;14.53;;;;;;;;;;5026229;28;20483;-59
2022/12/11 07:28:20;;;;;;;47.97;13.60;;;0.80;99.90;;;;;;5032067;28;20483;-59
2022/12/11 07:30:47;;;;;;;39.10;14.50;;;0.70;99.90;;;;;;5035054;28;20484;-60
2022/12/11 07:33:14;;;;;;;46.80;15.67;;;0.80;99.90;;;;;;5036652;28;20480;-58
2022/12/11 07:35:42;;;;;;;58.67;14.90;;;;;;;;;;5034489;28;20496;-59
2022/12/11 07:38:09;;;;;;;46.33;12.47;;;;;;;;;;5036653;28;20484;-59
2022/12/11 07:40:35;;;;;;;52.97;16.87;;;0.70;99.90;;;;;;5038258;28;20869;-59
2022/12/11 07:43:02;;;;;;;60.40;16.17;;;0.70;99.90;;;;;;5032174;28;20496;-59
2022/12/11 07:45:30;;;;;;;64.10;20.90;;;0.70;99.90;;;;;;5047977;28;20479;-59
2022/12/11 07:47:58;;;;;;;39.53;12.80;;;0.70;99.90;;;;;;5007133;28;20485;-59
2022/12/11 07:50:25;;;;;;;64.33;18.10;;;;;;;;;;5021752;28;20488;-59
2022/12/11 07:52:52;;;;;;;53.23;15.10;;;0.70;99.90;;;;;;5017291;28;20497;-59
2022/12/11 07:55:19;;;;;;;28.20;8.50;;;;;;;;;;5017191;28;20488;-59
2022/12/11 07:57:46;;;;;;;39.47;12.67;;;0.50;99.90;;;;;;5011846;28;20484;-58
2022/12/11 08:00:13;;;;;;;42.10;14.30;;;0.50;99.90;;;;;;5022376;28;20472;-59
2022/12/11 08:02:42;;;;;;;52.77;16.93;;;;;;;;;;5020695;28;20500;-59
2022/12/11 08:05:09;;;;;;;41.77;11.03;;;;;;;;;;5016378;28;20493;-59
2022/12/11 08:07:36;;;;;;;36.50;13.87;;;0.50;99.90;;;;;;5015378;28;20508;-59
2022/12/11 08:10:04;;;;;;;48.10;16.73;;;0.60;99.90;;;;;;5016439;28;20883;-59
2022/12/11 08:12:31;;;;;;;53.50;16.23;;;0.60;99.90;;;;;;5003156;28;20484;-59
2022/12/11 08:14:57;;;;;;;33.40;11.47;;;0.50;99.90;;;;;;5015474;28;20481;-59
2022/12/11 08:17:24;;;;;;;59.43;17.07;;;;;;;;;;5011558;28;20830;-59
2022/12/11 08:19:52;;;;;;;51.90;13.23;;;0.50;99.90;;;;;;5015372;28;20848;-60
2022/12/11 08:22:19;;;;;;;57.10;19.30;;;0.70;99.90;;;;;;5014686;28;20829;-60
2022/12/11 08:24:47;;;;;;;42.33;13.77;;;0.60;99.90;;;;;;5015789;28;20485;-60
2022/12/11 08:27:13;;;;;;;45.27;12.90;;;0.60;99.90;;;;;;5015897;28;20481;-60
2022/12/11 08:29:40;;;;;;;45.20;13.07;;;0.60;99.90;;;;;;5017465;28;20986;-60
2022/12/11 08:32:07;;;;;;;55.67;17.80;;;0.50;99.90;;;;;;5015257;28;20481;-60
2022/12/11 08:34:34;;;;;;;46.10;15.10;;;0.60;99.90;;;;;;5015160;28;20497;-60
2022/12/11 08:37:02;;;;;;;57.37;16.00;;;0.70;99.90;;;;;;5009656;28;20485;-60
2022/12/11 08:39:29;;;;;;;67.87;20.33;;;;;;;;;;5013524;28;21024;-60
2022/12/11 08:41:56;;;;;;;45.07;14.40;;;0.80;99.90;;;;;;5017121;28;20463;-59
2022/12/11 08:44:23;;;;;;;62.53;17.60;;;0.80;99.90;;;;;;5019471;28;20520;-60
2022/12/11 08:46:51;;;;;;;33.17;11.70;;;;;;;;;;5014122;28;20485;-59
2022/12/11 08:49:17;;;;;;;63.07;17.27;;;2.50;99.90;;;;;;5016798;28;20486;-59
2022/12/11 08:51:44;;;;;;;42.37;14.40;;;;;;;;;;5038309;28;20843;-59
2022/12/11 08:54:12;;;;;;;60.13;17.40;;;1.10;99.90;;;;;;5027661;28;20484;-59
2022/12/11 08:56:39;;;;;;;53.13;18.47;;;1.20;99.90;;;;;;5012586;28;20485;-59
2022/12/11 08:59:06;;;;;;;45.13;16.67;;;1.20;99.90;;;;;;5031486;28;20479;-59
2022/12/11 09:01:33;;;;;;;55.17;18.27;;;;;;;;;;5017556;28;20850;-59
2022/12/11 09:04:00;;;;;;;34.43;10.50;;;1.20;99.90;;;;;;5018767;28;20473;-60
2022/12/11 09:06:29;;;;;;;64.33;21.70;;;;;;;;;;5023406;28;20828;-59
2022/12/11 09:08:58;;;;;;;43.23;13.50;;;1.10;99.90;;;;;;5030647;28;20575;-59
2022/12/11 09:11:29;;;;;;;59.43;18.57;;;1.20;99.90;;;;;;5025809;28;20491;-59
2022/12/11 09:13:56;;;;;;;32.27;11.10;;;1.20;99.90;;;;;;5039255;28;20491;-59
2022/12/11 09:16:25;;;;;;;50.37;16.67;;;1.30;99.90;;;;;;5041903;28;20485;-59
2022/12/11 09:18:53;;;;;;;44.17;13.17;;;1.30;99.90;;;;;;5019118;28;20522;-59
2022/12/11 09:21:22;;;;;;;46.93;15.13;;;1.40;99.90;;;;;;5017725;28;20898;-59
2022/12/11 09:23:49;;;;;;;47.33;14.20;;;;;;;;;;5018760;28;20484;-59
2022/12/11 09:26:17;;;;;;;48.17;16.43;;;1.00;99.90;;;;;;5016343;28;20488;-59
2022/12/11 09:28:46;;;;;;;46.10;13.40;;;1.10;99.90;;;;;;5016620;28;21001;-59
2022/12/11 09:31:15;;;;;;;61.17;14.27;;;-1.30;99.90;;;;;;5016467;28;20992;-60
2022/12/11 09:33:42;;;;;;;43.10;13.83;;;;;;;;;;5015006;28;20496;-59
2022/12/11 09:36:10;;;;;;;67.70;19.17;;;1.10;99.90;;;;;;5008163;28;20484;-59
2022/12/11 09:38:37;;;;;;;57.20;11.97;;;1.00;99.90;;;;;;5002803;28;20831;-59
2022/12/11 09:41:26;;;;;;;54.20;16.63;;;0.80;99.90;;;;;;5039723;28;20480;-60
2022/12/11 09:44:01;;;;;;;55.83;18.37;;;0.70;99.90;;;;;;5020602;28;20489;-60
2022/12/11 09:46:28;;;;;;;75.93;16.40;;;0.80;99.90;;;;;;5022620;28;20529;-59
2022/12/11 09:48:55;;;;;;;49.33;15.70;;;0.90;99.90;;;;;;5017881;28;20490;-59
2022/12/11 09:51:25;;;;;;;96.50;28.70;;;;;;;;;;5017563;28;20473;-59
2022/12/11 09:53:53;;;;;;;38.53;11.70;;;0.70;99.90;;;;;;5016997;28;20572;-59
2022/12/11 09:56:25;;;;;;;64.70;18.73;;;0.90;99.90;;;;;;5016288;28;20988;-59
2022/12/11 09:59:02;;;;;;;60.33;17.07;;;1.00;99.90;;;;;;5015586;28;20481;-59
2022/12/11 10:01:37;;;;;;;103.63;27.00;;;0.90;99.90;;;;;;5016443;28;20839;-59
2022/12/11 10:04:32;;;;;;;89.63;25.10;;;0.70;99.90;;;;;;5015865;28;20759;-59
2022/12/11 10:07:06;;;;;;;56.77;18.57;;;0.70;99.90;;;;;;5021713;28;20527;-59
2022/12/11 10:09:38;;;;;;;89.13;26.60;;;0.70;99.90;;;;;;5019636;28;20907;-59
2022/12/11 10:12:17;;;;;;;68.13;19.80;;;3.00;99.90;;;;;;5014751;28;20790;-59
2022/12/11 10:14:56;;;;;;;86.80;21.60;;;0.60;99.90;;;;;;5020401;28;20925;-59
2022/12/11 10:17:28;;;;;;;97.13;25.23;;;0.70;99.90;;;;;;5019848;28;20484;-59
2022/12/11 10:19:57;;;;;;;87.30;20.87;;;0.90;99.90;;;;;;5026002;28;20484;-59
2022/12/11 10:22:25;;;;;;;73.47;20.97;;;;;;;;;;5036538;28;20560;-59
2022/12/11 10:24:56;;;;;;;72.77;21.87;;;;;;;;;;5037588;28;20483;-59
2022/12/11 10:27:25;;;;;;;107.37;28.37;;;1.10;99.90;;;;;;5037312;28;20567;-59
2022/12/11 10:30:01;;;;;;;60.10;19.70;;;1.10;99.90;;;;;;5036018;28;20485;-58
2022/12/11 10:32:36;;;;;;;76.37;20.03;;;1.10;99.90;;;;;;5036919;28;20550;-59
2022/12/11 10:35:06;;;;;;;64.37;20.57;;;1.10;99.90;;;;;;5028958;28;20480;-59
2022/12/11 10:37:33;;;;;;;66.63;19.60;;;1.20;99.90;;;;;;5028013;28;20499;-59
2022/12/11 10:40:00;;;;;;;64.10;17.47;;;1.20;99.90;;;;;;5036535;28;20532;-59
2022/12/11 10:42:26;;;;;;;102.10;24.93;;;1.20;99.90;;;;;;5035713;28;20495;-59
2022/12/11 10:45:00;;;;;;;69.43;20.43;;;1.30;99.90;;;;;;5034457;28;20515;-59
2022/12/11 10:47:27;;;;;;;74.97;21.90;;;1.30;99.90;;;;;;5033900;28;20633;-59
2022/12/11 10:49:57;;;;;;;66.20;18.63;;;1.40;99.90;;;;;;5038200;28;20481;-59
2022/12/11 10:52:26;;;;;;;78.20;20.97;;;1.50;99.90;;;;;;5035419;28;21006;-59
2022/12/11 10:54:58;;;;;;;70.87;20.80;;;1.60;99.90;;;;;;5035253;28;20487;-59
2022/12/11 10:57:29;;;;;;;83.10;21.97;;;1.60;99.90;;;;;;5034475;28;20487;-58
2022/12/11 10:59:58;;;;;;;56.00;19.83;;;1.60;99.90;;;;;;5034611;28;20472;-60
2022/12/11 11:02:26;;;;;;;92.20;29.83;;;1.60;99.90;;;;;;5037042;28;21366;-59
2022/12/11 11:04:54;;;;;;;68.57;19.83;;;;;;;;;;5033916;28;20868;-59
2022/12/11 11:07:24;;;;;;;81.20;26.50;;;1.70;99.90;;;;;;5032784;28;20495;-60
2022/12/11 11:09:53;;;;;;;74.60;23.30;;;1.60;99.90;;;;;;5034499;28;20480;-59
2022/12/11 11:12:23;;;;;;;78.07;26.37;;;1.50;99.90;;;;;;5035076;28;21093;-59
2022/12/11 11:15:01;;;;;;;65.97;23.27;;;1.40;99.90;;;;;;5034177;28;20868;-59
2022/12/11 11:17:27;;;;;;;75.30;24.00;;;1.50;99.90;;;;;;5031921;28;20486;-60
2022/12/11 11:19:56;;;;;;;65.97;19.63;;;1.50;99.90;;;;;;5041391;28;20483;-59
2022/12/11 11:22:23;;;;;;;59.97;20.17;;;1.50;99.90;;;;;;5033174;28;20476;-60
2022/12/11 11:24:55;;;;;;;60.50;21.10;;;1.60;99.90;;;;;;5033739;28;20468;-59
2022/12/11 11:27:30;;;;;;;83.03;25.70;;;1.00;99.90;;;;;;5032860;28;20491;-59
2022/12/11 11:30:02;;;;;;;74.40;22.47;;;1.60;99.90;;;;;;5032736;28;20487;-59
2022/12/11 11:32:33;;;;;;;90.67;27.30;;;1.60;99.90;;;;;;5032322;28;20484;-59
2022/12/11 11:35:21;;;;;;;85.00;20.37;;;1.60;99.90;;;;;;5034828;28;20985;-59
2022/12/11 11:37:55;;;;;;;72.17;18.17;;;;;;;;;;5030053;28;20464;-59
2022/12/11 11:40:24;;;;;;;92.97;25.07;;;;;;;;;;5022194;28;20487;-59
2022/12/11 11:43:01;;;;;;;68.97;23.03;;;1.70;99.90;;;;;;5037983;28;20495;-59
2022/12/11 11:45:32;;;;;;;79.70;22.87;;;1.80;99.90;;;;;;5033118;28;20476;-59
2022/12/11 11:48:10;;;;;;;63.90;18.30;;;1.90;99.90;;;;;;5035448;28;21210;-59
2022/12/11 11:50:41;;;;;;;67.93;22.87;;;1.90;99.90;;;;;;5032917;28;20744;-59
2022/12/11 11:53:13;;;;;;;69.83;19.73;;;2.00;99.90;;;;;;5039740;28;20488;-59
2022/12/11 11:55:49;;;;;;;78.87;26.00;;;1.90;99.50;;;;;;5035699;28;20537;-59
2022/12/11 11:58:21;;;;;;;63.30;20.67;;;1.80;99.70;;;;;;5035237;28;20537;-59
2022/12/11 12:00:52;;;;;;;83.57;21.43;;;1.90;99.90;;;;;;5009194;28;20564;-58
2022/12/11 12:03:21;;;;;;;53.40;19.00;;;1.90;99.90;;;;;;5005160;28;20472;-59
2022/12/11 12:05:55;;;;;;;62.80;18.17;;;1.90;99.90;;;;;;5015782;28;20484;-59
2022/12/11 12:08:39;;;;;;;67.53;21.73;;;2.00;99.90;;;;;;5005840;28;20564;-59
2022/12/11 12:11:20;;;;;;;65.10;21.27;;;2.00;99.60;;;;;;5032076;28;20476;-59
2022/12/11 12:13:57;;;;;;;54.27;19.57;;;1.90;99.80;;;;;;5037588;28;20964;-59
2022/12/11 12:16:35;;;;;;;78.57;25.70;;;1.70;99.80;;;;;;5005979;28;20486;-58
2022/12/11 12:19:13;;;;;;;43.63;16.40;;;1.80;99.60;;;;;;5024636;28;20512;-58
2022/12/11 12:21:46;;;;;;;54.90;16.37;;;1.90;99.90;;;;;;5033998;28;20484;-59
2022/12/11 12:24:23;;;;;;;64.43;21.23;;;1.90;99.70;;;;;;5036201;28;20495;-59
2022/12/11 12:26:56;;;;;;;61.33;20.77;;;1.90;99.60;;;;;;5004987;28;20468;-59
2022/12/11 12:29:36;;;;;;;68.57;20.50;;;1.90;99.20;;;;;;5029384;28;20761;-59
2022/12/11 12:32:16;;;;;;;63.17;18.27;;;2.00;99.60;;;;;;5035491;28;21140;-59
2022/12/11 12:35:00;;;;;;;54.13;16.97;;;2.00;99.60;;;;;;5036268;28;21218;-59
2022/12/11 12:37:47;;;;;;;59.90;20.50;;;2.10;99.30;;;;;;5015581;28;20976;-59
2022/12/11 12:40:20;;;;;;;71.87;20.30;;;1.90;99.10;;;;;;5033138;28;20476;-59
2022/12/11 12:42:56;;;;;;;54.87;18.90;;;1.80;99.10;;;;;;5041039;28;20476;-59
2022/12/11 12:45:29;;;;;;;53.67;18.57;;;1.80;99.20;;;;;;5025666;28;20479;-59
2022/12/11 12:47:57;;;;;;;46.23;16.37;;;1.90;99.50;;;;;;5033776;28;20792;-59
2022/12/11 12:50:36;;;;;;;73.33;21.00;;;1.90;99.30;;;;;;5037395;28;20793;-59
2022/12/11 12:53:05;;;;;;;56.87;16.07;;;;;;;;;;5031244;28;20488;-59
2022/12/11 12:55:33;;;;;;;57.97;19.90;;;1.90;98.80;;;;;;5037953;28;20492;-59
2022/12/11 12:58:02;;;;;;;45.13;15.90;;;1.90;99.50;;;;;;5035836;28;20758;-60
2022/12/11 13:00:32;;;;;;;51.70;18.13;;;1.80;99.20;;;;;;5037849;28;20561;-59
2022/12/11 13:03:02;;;;;;;40.47;13.60;;;;;;;;;;5036920;28;21071;-59
2022/12/11 13:05:33;;;;;;;76.37;21.60;;;1.70;98.90;;;;;;5033790;28;20476;-59
2022/12/11 13:08:01;;;;;;;57.80;19.97;;;;;;;;;;5036448;28;20484;-59
2022/12/11 13:10:32;;;;;;;65.67;17.93;;;1.80;99.40;;;;;;5037374;28;20480;-59